Time,TemperatureF,DewpointF,PressureIn,WindDirection,WindDirectionDegrees,WindSpeedMPH,WindSpeedGustMPH,Humidity,HourlyPrecipIn,Conditions,Clouds,dailyrainin,SoftwareType,DateUTC
2013-01-28 00:02:00,52.0,51.0,29.94,SSW,202,7.0,11.0,93,-99.99,,,-99.99,,2013-01-28 06:02:00,
2013-01-28 00:11:00,53.0,51.0,29.94,SSW,202,10.0,13.0,93,-99.99,,,-99.99,,2013-01-28 06:11:00,
2013-01-28 00:21:00,53.0,51.0,29.94,SSW,202,8.0,12.0,93,-99.99,,,-99.99,,2013-01-28 06:21:00,
2013-01-28 00:32:00,53.0,51.0,29.94,SSW,202,9.0,11.0,93,-99.99,,,-99.99,,2013-01-28 06:32:00,
2013-01-28 00:42:00,53.0,51.0,29.94,SSW,202,8.0,12.0,93,-99.99,,,-99.99,,2013-01-28 06:42:00,
2013-01-28 00:52:00,53.0,51.0,29.94,SSW,202,7.0,9.0,93,-99.99,,,-99.99,,2013-01-28 06:52:00,
2013-01-28 01:02:00,53.0,51.0,29.94,SSW,202,9.0,13.0,94,-99.99,,,-99.99,,2013-01-28 07:02:00,
2013-01-28 01:11:00,53.0,52.0,29.94,SSW,202,8.0,11.0,93,-99.99,,,-99.99,,2013-01-28 07:11:00,
2013-01-28 01:21:00,54.0,52.0,29.94,SSW,202,8.0,12.0,93,-99.99,,,-99.99,,2013-01-28 07:21:00,
2013-01-28 01:31:00,54.0,52.0,29.94,SSW,202,9.0,12.0,93,-99.99,,,-99.99,,2013-01-28 07:31:00,
2013-01-28 01:41:00,54.0,52.0,29.94,SSW,202,8.0,13.0,93,-99.99,,,-99.99,,2013-01-28 07:41:00,
2013-01-28 01:51:00,54.0,52.0,29.94,SSW,202,8.0,13.0,93,-99.99,,,-99.99,,2013-01-28 07:51:00,
2013-01-28 02:01:00,54.0,52.0,29.94,SSW,202,7.0,11.0,93,-99.99,,,-99.99,,2013-01-28 08:01:00,
2013-01-28 02:11:00,54.0,52.0,29.93,SSW,202,8.0,11.0,93,-99.99,,,-99.99,,2013-01-28 08:11:00,
2013-01-28 02:21:00,54.0,52.0,29.93,SSW,202,9.0,13.0,93,-99.99,,,-99.99,,2013-01-28 08:21:00,
2013-01-28 02:32:00,54.0,52.0,29.93,SSW,202,9.0,13.0,93,-99.99,,,-99.99,,2013-01-28 08:32:00,
2013-01-28 02:42:00,54.0,52.0,29.94,SSW,202,8.0,11.0,93,-99.99,,,-99.99,,2013-01-28 08:42:00,
2013-01-28 02:52:00,54.0,52.0,29.94,SSW,202,8.0,12.0,93,-99.99,,,-99.99,,2013-01-28 08:52:00,
2013-01-28 03:02:00,54.0,52.0,29.94,SSW,202,7.0,9.0,93,-99.99,,,-99.99,,2013-01-28 09:02:00,
2013-01-28 03:11:00,54.0,52.0,29.93,SSW,202,7.0,12.0,94,-99.99,,,-99.99,,2013-01-28 09:11:00,
2013-01-28 03:21:00,54.0,52.0,29.93,South,180,8.0,12.0,94,-99.99,,,-99.99,,2013-01-28 09:21:00,
2013-01-28 03:32:00,54.0,52.0,29.93,South,180,8.0,13.0,94,-99.99,,,-99.99,,2013-01-28 09:32:00,
2013-01-28 03:42:00,54.0,52.0,29.93,SSW,202,7.0,10.0,94,-99.99,,,-99.99,,2013-01-28 09:42:00,
2013-01-28 03:51:00,54.0,52.0,29.93,SSW,202,7.0,10.0,94,-99.99,,,-99.99,,2013-01-28 09:51:00,
2013-01-28 04:02:00,54.0,52.0,29.93,South,180,7.0,11.0,94,-99.99,,,-99.99,,2013-01-28 10:02:00,
2013-01-28 04:11:00,54.0,52.0,29.93,South,180,8.0,11.0,94,-99.99,,,-99.99,,2013-01-28 10:11:00,
2013-01-28 04:21:00,54.0,52.0,29.93,South,180,7.0,9.0,94,-99.99,,,-99.99,,2013-01-28 10:21:00,
2013-01-28 04:31:00,54.0,52.0,29.93,South,180,7.0,10.0,95,-99.99,,,-99.99,,2013-01-28 10:31:00,
2013-01-28 04:41:00,53.0,52.0,29.93,SSW,202,5.0,7.0,95,-99.99,,,-99.99,,2013-01-28 10:41:00,
2013-01-28 04:51:00,53.0,52.0,29.93,South,180,2.0,4.0,95,-99.99,,,-99.99,,2013-01-28 10:51:00,
2013-01-28 05:02:00,52.0,50.0,29.94,SSE,157,2.0,3.0,95,-99.99,,,-99.99,,2013-01-28 11:02:00,
2013-01-28 05:11:00,52.0,51.0,29.94,South,180,3.0,4.0,96,-99.99,,,-99.99,,2013-01-28 11:11:00,
2013-01-28 05:22:00,51.0,50.0,29.93,SSE,157,5.0,6.0,96,-99.99,,,-99.99,,2013-01-28 11:22:00,
2013-01-28 05:32:00,51.0,51.0,29.93,South,180,6.0,8.0,100,-99.99,,,-99.99,,2013-01-28 11:32:00,
2013-01-28 05:42:00,53.0,52.0,29.93,South,180,7.0,9.0,99,-99.99,,,-99.99,,2013-01-28 11:42:00,
2013-01-28 05:52:00,53.0,52.0,29.93,South,180,7.0,9.0,98,-99.99,,,-99.99,,2013-01-28 11:52:00,
2013-01-28 06:03:00,53.0,52.0,29.93,South,180,6.0,8.0,98,-99.99,,,-99.99,,2013-01-28 12:03:00,
2013-01-28 06:11:00,53.0,52.0,29.93,South,180,6.0,7.0,98,-99.99,,,-99.99,,2013-01-28 12:11:00,
2013-01-28 06:23:00,52.0,52.0,29.94,South,180,6.0,7.0,98,-99.99,,,-99.99,,2013-01-28 12:23:00,
2013-01-28 06:32:00,52.0,52.0,29.94,South,180,5.0,6.0,98,-99.99,,,-99.99,,2013-01-28 12:32:00,
2013-01-28 06:42:00,52.0,52.0,29.94,South,180,4.0,6.0,98,-99.99,,,-99.99,,2013-01-28 12:42:00,
2013-01-28 06:52:00,52.0,52.0,29.95,South,180,3.0,5.0,97,-99.99,,,-99.99,,2013-01-28 12:52:00,
2013-01-28 07:02:00,51.0,50.0,29.95,South,180,3.0,4.0,97,-99.99,,,-99.99,,2013-01-28 13:02:00,
2013-01-28 07:12:00,50.0,49.0,29.95,South,180,4.0,5.0,98,-99.99,,,-99.99,,2013-01-28 13:12:00,
2013-01-28 07:23:00,49.0,49.0,29.95,South,180,4.0,5.0,98,-99.99,,,-99.99,,2013-01-28 13:23:00,
2013-01-28 07:33:00,50.0,50.0,29.95,South,180,3.0,5.0,99,-99.99,,,-99.99,,2013-01-28 13:33:00,
2013-01-28 07:42:00,50.0,50.0,29.95,South,180,3.0,3.0,99,-99.99,,,-99.99,,2013-01-28 13:42:00,
2013-01-28 07:52:00,50.0,50.0,29.95,South,180,3.0,4.0,99,-99.99,,,-99.99,,2013-01-28 13:52:00,
2013-01-28 08:02:00,51.0,50.0,29.96,South,180,3.0,4.0,99,-99.99,,,-99.99,,2013-01-28 14:02:00,
2013-01-28 08:12:00,51.0,50.0,29.96,SSE,157,3.0,4.0,99,-99.99,,,-99.99,,2013-01-28 14:12:00,
2013-01-28 08:22:00,51.0,50.0,29.96,SSE,157,3.0,3.0,99,-99.99,,,-99.99,,2013-01-28 14:22:00,
2013-01-28 08:33:00,50.0,50.0,29.97,SSE,157,2.0,3.0,99,-99.99,,,-99.99,,2013-01-28 14:33:00,
2013-01-28 08:42:00,51.0,50.0,29.97,SSE,157,2.0,3.0,99,-99.99,,,-99.99,,2013-01-28 14:42:00,
2013-01-28 08:52:00,50.0,50.0,29.97,SSE,157,3.0,4.0,99,-99.99,,,-99.99,,2013-01-28 14:52:00,
2013-01-28 09:03:00,51.0,50.0,29.97,SSE,157,3.0,4.0,99,-99.99,,,-99.99,,2013-01-28 15:03:00,
2013-01-28 09:12:00,52.0,52.0,29.97,SSE,157,3.0,4.0,100,-99.99,,,-99.99,,2013-01-28 15:12:00,
2013-01-28 09:23:00,52.0,52.0,29.97,SSE,157,3.0,4.0,100,-99.99,,,-99.99,,2013-01-28 15:23:00,
2013-01-28 09:33:00,53.0,52.0,29.97,SSE,157,3.0,4.0,99,-99.99,,,-99.99,,2013-01-28 15:33:00,
2013-01-28 09:43:00,53.0,53.0,29.97,SSE,157,3.0,4.0,99,-99.99,,,-99.99,,2013-01-28 15:43:00,
2013-01-28 09:52:00,53.0,53.0,29.97,SSE,157,4.0,5.0,98,-99.99,,,-99.99,,2013-01-28 15:52:00,
2013-01-28 10:03:00,54.0,53.0,29.97,SSE,157,3.0,4.0,99,-99.99,,,-99.99,,2013-01-28 16:03:00,
2013-01-28 10:12:00,54.0,54.0,29.97,SSE,157,3.0,4.0,98,-99.99,,,-99.99,,2013-01-28 16:12:00,
2013-01-28 10:22:00,55.0,54.0,29.97,SSE,157,4.0,5.0,98,-99.99,,,-99.99,,2013-01-28 16:22:00,
2013-01-28 10:32:00,56.0,55.0,29.97,SSE,157,4.0,5.0,97,-99.99,,,-99.99,,2013-01-28 16:32:00,
2013-01-28 10:42:00,57.0,56.0,29.97,South,180,3.0,5.0,97,-99.99,,,-99.99,,2013-01-28 16:42:00,
2013-01-28 10:52:00,58.0,56.0,29.97,SSE,157,4.0,5.0,95,-99.99,,,-99.99,,2013-01-28 16:52:00,
2013-01-28 11:01:00,59.0,57.0,29.97,SSE,157,4.0,5.0,95,-99.99,,,-99.99,,2013-01-28 17:01:00,
2013-01-28 11:12:00,60.0,58.0,29.96,SSE,157,4.0,5.0,94,-99.99,,,-99.99,,2013-01-28 17:12:00,
2013-01-28 11:22:00,63.0,59.0,29.96,SSE,157,5.0,7.0,89,-99.99,,,-99.99,,2013-01-28 17:22:00,
2013-01-28 11:32:00,65.0,60.0,29.95,South,180,7.0,8.0,85,-99.99,,,-99.99,,2013-01-28 17:32:00,
2013-01-28 11:42:00,64.0,60.0,29.95,South,180,7.0,9.0,86,-99.99,,,-99.99,,2013-01-28 17:42:00,
2013-01-28 11:52:00,65.0,60.0,29.95,South,180,8.0,12.0,84,-99.99,,,-99.99,,2013-01-28 17:52:00,
2013-01-28 12:02:00,65.0,60.0,29.95,SSW,202,7.0,11.0,83,-99.99,,,-99.99,,2013-01-28 18:02:00,
2013-01-28 12:12:00,66.0,61.0,29.94,SSW,202,7.0,11.0,82,-99.99,,,-99.99,,2013-01-28 18:12:00,
2013-01-28 12:23:00,66.0,61.0,29.94,SSW,202,8.0,11.0,83,-99.99,,,-99.99,,2013-01-28 18:23:00,
2013-01-28 12:33:00,66.0,61.0,29.93,SSW,202,9.0,13.0,83,-99.99,,,-99.99,,2013-01-28 18:33:00,
2013-01-28 12:42:00,66.0,61.0,29.92,SSW,202,8.0,11.0,82,-99.99,,,-99.99,,2013-01-28 18:42:00,
2013-01-28 12:52:00,68.0,61.0,29.92,SSW,202,8.0,11.0,78,-99.99,,,-99.99,,2013-01-28 18:52:00,
2013-01-28 13:02:00,68.0,61.0,29.92,SSW,202,9.0,14.0,79,-99.99,,,-99.99,,2013-01-28 19:02:00,
2013-01-28 13:12:00,69.0,62.0,29.91,SSW,202,7.0,12.0,78,-99.99,,,-99.99,,2013-01-28 19:12:00,
2013-01-28 13:22:00,69.0,61.0,29.90,SSW,202,8.0,11.0,75,-99.99,,,-99.99,,2013-01-28 19:22:00,
2013-01-28 13:32:00,68.0,61.0,29.90,SW,225,8.0,13.0,77,-99.99,,,-99.99,,2013-01-28 19:32:00,
2013-01-28 13:42:00,69.0,61.0,29.90,SSW,202,9.0,12.0,77,-99.99,,,-99.99,,2013-01-28 19:42:00,
2013-01-28 13:52:00,69.0,61.0,29.89,SSW,202,7.0,10.0,76,-99.99,,,-99.99,,2013-01-28 19:52:00,
2013-01-28 14:02:00,68.0,61.0,29.89,South,180,5.0,8.0,79,-99.99,,,-99.99,,2013-01-28 20:02:00,
2013-01-28 14:11:00,70.0,62.0,29.89,South,180,8.0,13.0,76,-99.99,,,-99.99,,2013-01-28 20:11:00,
2013-01-28 14:22:00,70.0,62.0,29.88,South,180,7.0,11.0,76,-99.99,,,-99.99,,2013-01-28 20:22:00,
2013-01-28 14:33:00,70.0,62.0,29.88,SSE,157,8.0,11.0,75,-99.99,,,-99.99,,2013-01-28 20:33:00,
2013-01-28 14:42:00,70.0,62.0,29.88,South,180,7.0,9.0,75,-99.99,,,-99.99,,2013-01-28 20:42:00,
2013-01-28 14:52:00,70.0,62.0,29.88,SSE,157,7.0,9.0,77,-99.99,,,-99.99,,2013-01-28 20:52:00,
2013-01-28 15:03:00,70.0,62.0,29.88,SSE,157,5.0,9.0,77,-99.99,,,-99.99,,2013-01-28 21:03:00,
2013-01-28 15:11:00,71.0,62.0,29.88,SSE,157,7.0,9.0,75,-99.99,,,-99.99,,2013-01-28 21:11:00,
2013-01-28 15:22:00,72.0,63.0,29.87,SSE,157,6.0,8.0,73,-99.99,,,-99.99,,2013-01-28 21:22:00,
2013-01-28 15:33:00,72.0,63.0,29.87,SSE,157,7.0,9.0,73,-99.99,,,-99.99,,2013-01-28 21:33:00,
2013-01-28 15:42:00,71.0,62.0,29.87,SSE,157,6.0,8.0,74,-99.99,,,-99.99,,2013-01-28 21:42:00,
2013-01-28 15:52:00,70.0,62.0,29.87,South,180,4.0,6.0,76,-99.99,,,-99.99,,2013-01-28 21:52:00,
2013-01-28 16:02:00,71.0,62.0,29.87,SSE,157,3.0,6.0,74,-99.99,,,-99.99,,2013-01-28 22:02:00,
2013-01-28 16:11:00,71.0,60.0,29.87,SSW,202,7.0,12.0,69,-99.99,,,-99.99,,2013-01-28 22:11:00,
2013-01-28 16:22:00,71.0,59.0,29.87,SSW,202,9.0,17.0,66,-99.99,,,-99.99,,2013-01-28 22:22:00,
2013-01-28 16:32:00,71.0,59.0,29.87,SSW,202,11.0,16.0,66,-99.99,,,-99.99,,2013-01-28 22:32:00,
2013-01-28 16:42:00,70.0,59.0,29.87,SSW,202,10.0,14.0,68,-99.99,,,-99.99,,2013-01-28 22:42:00,
2013-01-28 16:52:00,69.0,59.0,29.87,SSW,202,7.0,11.0,71,-99.99,,,-99.99,,2013-01-28 22:52:00,
2013-01-28 17:02:00,68.0,59.0,29.87,SSW,202,6.0,9.0,73,-99.99,,,-99.99,,2013-01-28 23:02:00,
2013-01-28 17:11:00,68.0,59.0,29.87,SSW,202,6.0,9.0,73,-99.99,,,-99.99,,2013-01-28 23:11:00,
2013-01-28 17:22:00,67.0,58.0,29.87,SSW,202,7.0,9.0,74,-99.99,,,-99.99,,2013-01-28 23:22:00,
2013-01-28 17:32:00,66.0,58.0,29.87,SSW,202,5.0,8.0,75,-99.99,,,-99.99,,2013-01-28 23:32:00,
2013-01-28 17:42:00,66.0,58.0,29.87,South,180,4.0,6.0,76,-99.99,,,-99.99,,2013-01-28 23:42:00,
2013-01-28 17:52:00,64.0,57.0,29.87,South,180,4.0,6.0,79,-99.99,,,-99.99,,2013-01-28 23:52:00,
2013-01-28 18:02:00,63.0,57.0,29.87,South,180,4.0,6.0,79,-99.99,,,-99.99,,2013-01-29 00:02:00,
2013-01-28 18:12:00,63.0,57.0,29.87,South,180,5.0,6.0,81,-99.99,,,-99.99,,2013-01-29 00:12:00,
2013-01-28 18:22:00,62.0,56.0,29.87,South,180,4.0,5.0,82,-99.99,,,-99.99,,2013-01-29 00:22:00,
2013-01-28 18:32:00,59.0,55.0,29.87,South,180,4.0,4.0,85,-99.99,,,-99.99,,2013-01-29 00:32:00,
2013-01-28 18:42:00,59.0,55.0,29.87,South,180,4.0,5.0,86,-99.99,,,-99.99,,2013-01-29 00:42:00,
2013-01-28 18:52:00,58.0,54.0,29.87,SSE,157,5.0,6.0,89,-99.99,,,-99.99,,2013-01-29 00:52:00,
2013-01-28 19:02:00,57.0,54.0,29.87,SSE,157,4.0,6.0,89,-99.99,,,-99.99,,2013-01-29 01:02:00,
2013-01-28 19:11:00,57.0,54.0,29.87,SSE,157,4.0,6.0,89,-99.99,,,-99.99,,2013-01-29 01:11:00,
2013-01-28 19:22:00,57.0,54.0,29.87,SSE,157,6.0,7.0,90,-99.99,,,-99.99,,2013-01-29 01:22:00,
2013-01-28 19:32:00,57.0,54.0,29.87,SSE,157,4.0,5.0,88,-99.99,,,-99.99,,2013-01-29 01:32:00,
2013-01-28 19:42:00,56.0,53.0,29.87,SSE,157,3.0,4.0,89,-99.99,,,-99.99,,2013-01-29 01:42:00,
2013-01-28 19:52:00,56.0,53.0,29.86,SSE,157,5.0,7.0,91,-99.99,,,-99.99,,2013-01-29 01:52:00,
2013-01-28 20:02:00,56.0,53.0,29.86,SSE,157,4.0,6.0,91,-99.99,,,-99.99,,2013-01-29 02:02:00,
2013-01-28 20:12:00,55.0,52.0,29.86,SSE,157,4.0,6.0,91,-99.99,,,-99.99,,2013-01-29 02:12:00,
2013-01-28 20:21:00,56.0,53.0,29.86,SSE,157,5.0,6.0,91,-99.99,,,-99.99,,2013-01-29 02:21:00,
2013-01-28 20:32:00,55.0,52.0,29.86,SSE,157,5.0,7.0,90,-99.99,,,-99.99,,2013-01-29 02:32:00,
2013-01-28 20:41:00,55.0,52.0,29.86,SSE,157,5.0,7.0,91,-99.99,,,-99.99,,2013-01-29 02:41:00,
2013-01-28 20:52:00,55.0,53.0,29.85,SSE,157,6.0,7.0,91,-99.99,,,-99.99,,2013-01-29 02:52:00,
2013-01-28 21:03:00,57.0,54.0,29.85,SSE,157,8.0,11.0,90,-99.99,,,-99.99,,2013-01-29 03:03:00,
2013-01-28 21:11:00,60.0,55.0,29.85,South,180,10.0,16.0,85,-99.99,,,-99.99,,2013-01-29 03:11:00,
2013-01-28 21:21:00,61.0,56.0,29.85,South,180,10.0,14.0,82,-99.99,,,-99.99,,2013-01-29 03:21:00,
2013-01-28 21:32:00,61.0,56.0,29.85,SSE,157,9.0,13.0,83,-99.99,,,-99.99,,2013-01-29 03:32:00,
2013-01-28 21:42:00,60.0,56.0,29.85,SSE,157,9.0,12.0,85,-99.99,,,-99.99,,2013-01-29 03:42:00,
2013-01-28 21:52:00,61.0,56.0,29.84,South,180,9.0,13.0,84,-99.99,,,-99.99,,2013-01-29 03:52:00,
2013-01-28 22:02:00,62.0,56.0,29.84,South,180,10.0,14.0,83,-99.99,,,-99.99,,2013-01-29 04:02:00,
2013-01-28 22:11:00,61.0,56.0,29.84,South,180,9.0,13.0,83,-99.99,,,-99.99,,2013-01-29 04:11:00,
2013-01-28 22:21:00,63.0,57.0,29.84,South,180,11.0,17.0,82,-99.99,,,-99.99,,2013-01-29 04:21:00,
2013-01-28 22:32:00,63.0,57.0,29.83,South,180,11.0,15.0,82,-99.99,,,-99.99,,2013-01-29 04:32:00,
2013-01-28 22:41:00,62.0,57.0,29.83,South,180,11.0,16.0,83,-99.99,,,-99.99,,2013-01-29 04:41:00,
2013-01-28 22:51:00,62.0,57.0,29.83,South,180,11.0,16.0,83,-99.99,,,-99.99,,2013-01-29 04:51:00,
2013-01-28 23:03:00,61.0,57.0,29.83,South,180,10.0,14.0,85,-99.99,,,-99.99,,2013-01-29 05:03:00,
2013-01-28 23:12:00,61.0,57.0,29.83,South,180,9.0,14.0,86,-99.99,,,-99.99,,2013-01-29 05:12:00,
2013-01-28 23:21:00,62.0,58.0,29.83,South,180,10.0,14.0,85,-99.99,,,-99.99,,2013-01-29 05:21:00,
2013-01-28 23:32:00,62.0,58.0,29.83,South,180,10.0,15.0,85,-99.99,,,-99.99,,2013-01-29 05:32:00,
2013-01-28 23:42:00,62.0,58.0,29.84,South,180,9.0,13.0,86,-99.99,,,-99.99,,2013-01-29 05:42:00,
2013-01-28 23:52:00,62.0,58.0,29.83,South,180,11.0,16.0,86,-99.99,,,-99.99,,2013-01-29 05:52:00,